Flight Track Log - Related Links

Times and Time Zones

All times are in EDT time to prevent confusion due to time zone crossing. See the AWI3778 flight status page for this flight to view local times or setup timezone preferences in your user account.

Time Position Orientation Groundspeed Altitude Reporting Facility
EDT Latitude Longitude Course Direction KTS MPH feet Rate Location/Type
12:19PM 39.8833 -75.2167 90° East 169 194 600  Level Philadelphia TRACON
12:19PM 39.8833 -75.2000 90° East 174 200 1,500 2,923 Climbing Philadelphia TRACON
12:20PM 39.9167 -75.1500 49° Northeast 226 260 4,400 2,900 Climbing Philadelphia TRACON
12:21PM 39.9833 -75.1333 11° North 261 300 7,300 2,550 Climbing Philadelphia TRACON
12:22PM 40.0500 -75.1333 360° North 297 342 9,500 1,350 Climbing Philadelphia TRACON
12:23PM 40.1500 -75.1333 360° North 352 405 10,000 248 Climbing Philadelphia TRACON
12:24PM 40.2000 -75.2333 303° West 346 398 10,000 298 Level Philadelphia TRACON
12:25PM 40.2000 -75.3500 270° West 339 390 10,600 1,400 Climbing Philadelphia TRACON
12:26PM 40.2167 -75.4667 281° West 349 402 12,800 1,125 Climbing Philadelphia TRACON
12:27PM 40.2481 -75.6006 287° West 361 415 13,000 1,181 Climbing New York Center
12:28PM 40.3128 -75.7006 310° West 358 412 15,300 2,186 Climbing New York Center
12:29PM 40.3736 -75.7892 312° West 358 412 17,300 2,067 Climbing New York Center
12:30PM 40.4528 -75.8878 317° Northwest 358 412 19,400 1,835 Climbing New York Center
12:31PM 40.5239 -75.9778 316° Northwest 358 412 21,000 1,500 Climbing New York Center
12:32PM 40.5750 -76.0908 301° West 358 412 22,400 1,261 Climbing New York Center
12:33PM 40.6564 -76.1792 321° Northwest 363 418 23,500 1,041 Climbing New York Center
12:34PM 40.7539 -76.1486 13° North 326 375 24,500 744 Climbing New York Center
12:35PM 40.8472 -76.0653 34° Northeast 337 388 25,000 250 Climbing New York Center
12:36PM 40.9486 -75.9881 30° Northeast 370 426 25,000  Level New York Center
12:37PM 41.0456 -75.9131 30° Northeast 424 488 25,000  Level New York Center
12:38PM 41.1531 -75.8331 29° Northeast 442 509 25,000  Level New York Center
12:39PM 41.2608 -75.7528 29° Northeast 442 509 25,000  Level New York Center
12:40PM 41.3642 -75.6719 30° Northeast 436 502 25,000  Level New York Center
12:41PM 41.4672 -75.5936 30° Northeast 431 496 25,000  Level New York Center
12:43PM 41.6475 -75.4544 30° Northeast 439 505 25,000  Level Boston Center
12:44PM 41.7494 -75.3786 29° Northeast 433 498 25,000  Level Boston Center
12:45PM 41.8539 -75.2944 31° Northeast 433 498 25,000  Level Boston Center
12:46PM 41.9558 -75.2150 30° Northeast 433 498 25,000 -50 Level Boston Center
12:47PM 42.0597 -75.1358 29° Northeast 433 498 24,900  Descending Boston Center
12:48PM 42.1639 -75.0564 29° Northeast 428 493 25,000 50 Climbing Boston Center
12:49PM 42.2636 -74.9761 31° Northeast 428 493 25,000  Level Boston Center
12:50PM 42.3486 -74.9094 30° Northeast 428 493 25,000  Level Boston Center
12:51PM 42.4694 -74.8131 30° Northeast 428 493 25,000  Level Boston Center
12:52PM 42.5711 -74.7322 30° Northeast 428 493 25,000  Level Boston Center
12:53PM 42.6728 -74.6511 30° Northeast 428 493 25,000  Level Boston Center
12:54PM 42.7744 -74.5728 29° Northeast 428 493 25,000  Level Boston Center
12:55PM 42.8547 -74.5047 32° Northeast 423 487 25,000  Level Boston Center
12:56PM 42.9794 -74.4039 31° Northeast 423 487 25,000  Level Boston Center
12:57PM 43.0811 -74.3192 31° Northeast 423 487 25,000  Level Boston Center
12:58PM 43.1844 -74.2369 30° Northeast 423 487 25,000  Level Boston Center
12:59PM 43.2881 -74.1486 32° Northeast 423 487 25,000  Level Boston Center
01:00PM 43.4019 -74.0575 30° Northeast 428 493 25,000 -400 Level Boston Center
01:01PM 43.5072 -73.9686 31° Northeast 428 493 24,200 -500 Descending Boston Center
01:02PM 43.6167 -73.8797 30° Northeast 441 507 24,000 -800 Descending Boston Center
01:03PM 43.7178 -73.7931 32° Northeast 450 518 22,600 -2,250 Descending Boston Center
01:04PM 43.8314 -73.7006 30° Northeast 440 506 19,500 -2,950 Descending Boston Center
01:05PM 43.9386 -73.6106 31° Northeast 440 506 16,700 -2,636 Descending Boston Center
01:06PM 44.0353 -73.5289 31° Northeast 424 488 13,700 -2,818 Descending Boston Center
01:07PM 44.1444 -73.4497 27° Northeast 382 440 10,500 -2,100 Descending Boston Center
01:08PM 44.2319 -73.4514 359° North 331 381 9,500 -1,550 Descending Boston Center
01:09PM 44.3089 -73.4467 North 308 354 7,400 -2,050 Descending Boston Center
01:10PM 44.3903 -73.4394 North 296 341 5,400 -1,650 Descending Boston Center
01:11PM 44.4592 -73.4203 11° North 290 334 4,100 -1,250 Descending Boston Center
01:12PM 44.5283 -73.3719 26° Northeast 240 276 2,900 -1,200 Descending Boston Center

Login

Don't have an account? Register now (free) for customized features, flight alerts, and more!